sensor_id;sensor_type;location;lat;lon;timestamp;P1;durP1;ratioP1;P2;durP2;ratioP2
9248;SDS011;4660;41.768;26.198;2022-11-20T00:00:34;10.23;;;3.58;;
9248;SDS011;4660;41.768;26.198;2022-11-20T00:02:59;9.95;;;3.47;;
9248;SDS011;4660;41.768;26.198;2022-11-20T00:05:25;15.40;;;4.05;;
9248;SDS011;4660;41.768;26.198;2022-11-20T00:07:50;13.93;;;3.53;;
9248;SDS011;4660;41.768;26.198;2022-11-20T00:10:16;18.92;;;3.72;;
9248;SDS011;4660;41.768;26.198;2022-11-20T00:12:42;21.58;;;4.50;;
9248;SDS011;4660;41.768;26.198;2022-11-20T00:15:07;13.05;;;3.70;;
9248;SDS011;4660;41.768;26.198;2022-11-20T00:17:34;12.57;;;3.92;;
9248;SDS011;4660;41.768;26.198;2022-11-20T00:19:59;13.63;;;3.50;;
9248;SDS011;4660;41.768;26.198;2022-11-20T00:22:24;13.57;;;3.47;;
9248;SDS011;4660;41.768;26.198;2022-11-20T00:24:50;16.45;;;3.97;;
9248;SDS011;4660;41.768;26.198;2022-11-20T00:27:15;12.68;;;3.60;;
9248;SDS011;4660;41.768;26.198;2022-11-20T00:29:41;14.85;;;4.22;;
9248;SDS011;4660;41.768;26.198;2022-11-20T00:32:06;13.75;;;4.18;;
9248;SDS011;4660;41.768;26.198;2022-11-20T00:34:32;13.38;;;4.50;;
9248;SDS011;4660;41.768;26.198;2022-11-20T00:36:57;16.60;;;4.40;;
9248;SDS011;4660;41.768;26.198;2022-11-20T00:39:23;11.05;;;3.97;;
9248;SDS011;4660;41.768;26.198;2022-11-20T00:41:48;13.82;;;4.28;;
9248;SDS011;4660;41.768;26.198;2022-11-20T00:44:14;10.60;;;3.78;;
9248;SDS011;4660;41.768;26.198;2022-11-20T00:46:39;13.02;;;4.22;;
9248;SDS011;4660;41.768;26.198;2022-11-20T00:49:05;20.58;;;5.35;;
9248;SDS011;4660;41.768;26.198;2022-11-20T00:51:30;15.32;;;3.90;;
9248;SDS011;4660;41.768;26.198;2022-11-20T00:53:56;11.32;;;3.88;;
9248;SDS011;4660;41.768;26.198;2022-11-20T00:56:23;16.33;;;4.07;;
9248;SDS011;4660;41.768;26.198;2022-11-20T00:58:49;11.00;;;3.47;;
9248;SDS011;4660;41.768;26.198;2022-11-20T01:03:43;13.07;;;3.60;;
9248;SDS011;4660;41.768;26.198;2022-11-20T01:06:11;13.02;;;3.30;;
9248;SDS011;4660;41.768;26.198;2022-11-20T01:08:44;23.88;;;4.95;;
9248;SDS011;4660;41.768;26.198;2022-11-20T01:11:12;15.52;;;3.47;;
9248;SDS011;4660;41.768;26.198;2022-11-20T01:13:40;12.55;;;3.28;;
9248;SDS011;4660;41.768;26.198;2022-11-20T01:16:07;18.65;;;3.47;;
9248;SDS011;4660;41.768;26.198;2022-11-20T01:18:54;9.93;;;3.08;;
9248;SDS011;4660;41.768;26.198;2022-11-20T01:21:23;12.93;;;3.63;;
9248;SDS011;4660;41.768;26.198;2022-11-20T01:23:51;15.05;;;3.08;;
9248;SDS011;4660;41.768;26.198;2022-11-20T01:26:18;9.20;;;3.22;;
9248;SDS011;4660;41.768;26.198;2022-11-20T01:28:47;20.45;;;4.07;;
9248;SDS011;4660;41.768;26.198;2022-11-20T01:31:20;10.52;;;3.80;;
9248;SDS011;4660;41.768;26.198;2022-11-20T01:33:57;8.60;;;3.47;;
9248;SDS011;4660;41.768;26.198;2022-11-20T01:36:25;15.45;;;3.70;;
9248;SDS011;4660;41.768;26.198;2022-11-20T01:38:53;17.48;;;3.50;;
9248;SDS011;4660;41.768;26.198;2022-11-20T01:41:20;17.85;;;4.20;;
9248;SDS011;4660;41.768;26.198;2022-11-20T01:44:05;15.32;;;4.30;;
9248;SDS011;4660;41.768;26.198;2022-11-20T01:46:40;15.50;;;3.70;;
9248;SDS011;4660;41.768;26.198;2022-11-20T01:49:15;13.27;;;2.97;;
9248;SDS011;4660;41.768;26.198;2022-11-20T01:51:45;17.95;;;4.30;;
9248;SDS011;4660;41.768;26.198;2022-11-20T01:57:15;11.98;;;3.08;;
9248;SDS011;4660;41.768;26.198;2022-11-20T01:59:46;10.63;;;3.28;;
9248;SDS011;4660;41.768;26.198;2022-11-20T02:02:17;10.27;;;3.10;;
9248;SDS011;4660;41.768;26.198;2022-11-20T02:04:42;13.48;;;3.72;;
9248;SDS011;4660;41.768;26.198;2022-11-20T02:07:09;11.85;;;3.55;;
9248;SDS011;4660;41.768;26.198;2022-11-20T02:09:35;12.88;;;3.25;;
9248;SDS011;4660;41.768;26.198;2022-11-20T02:12:01;9.60;;;3.35;;
9248;SDS011;4660;41.768;26.198;2022-11-20T02:14:26;14.75;;;3.80;;
9248;SDS011;4660;41.768;26.198;2022-11-20T02:16:53;14.73;;;3.25;;
9248;SDS011;4660;41.768;26.198;2022-11-20T02:19:26;16.67;;;3.88;;
9248;SDS011;4660;41.768;26.198;2022-11-20T02:24:50;17.73;;;3.38;;
9248;SDS011;4660;41.768;26.198;2022-11-20T02:27:16;7.60;;;2.90;;
9248;SDS011;4660;41.768;26.198;2022-11-20T02:32:23;9.32;;;3.40;;
9248;SDS011;4660;41.768;26.198;2022-11-20T02:34:53;10.90;;;2.97;;
9248;SDS011;4660;41.768;26.198;2022-11-20T02:37:19;15.55;;;3.40;;
9248;SDS011;4660;41.768;26.198;2022-11-20T02:39:46;10.05;;;3.60;;
9248;SDS011;4660;41.768;26.198;2022-11-20T02:42:13;10.10;;;2.95;;
9248;SDS011;4660;41.768;26.198;2022-11-20T02:44:39;14.13;;;3.42;;
9248;SDS011;4660;41.768;26.198;2022-11-20T02:47:05;10.85;;;3.17;;
9248;SDS011;4660;41.768;26.198;2022-11-20T02:49:30;14.70;;;2.97;;
9248;SDS011;4660;41.768;26.198;2022-11-20T02:51:56;11.05;;;3.63;;
9248;SDS011;4660;41.768;26.198;2022-11-20T02:54:22;16.23;;;3.42;;
9248;SDS011;4660;41.768;26.198;2022-11-20T02:56:48;16.63;;;3.38;;
9248;SDS011;4660;41.768;26.198;2022-11-20T02:59:13;9.90;;;3.42;;
9248;SDS011;4660;41.768;26.198;2022-11-20T03:01:39;11.50;;;3.58;;
9248;SDS011;4660;41.768;26.198;2022-11-20T03:04:05;12.30;;;3.72;;
9248;SDS011;4660;41.768;26.198;2022-11-20T03:06:30;11.55;;;3.03;;
9248;SDS011;4660;41.768;26.198;2022-11-20T03:08:56;11.00;;;3.40;;
9248;SDS011;4660;41.768;26.198;2022-11-20T03:11:22;10.63;;;2.97;;
9248;SDS011;4660;41.768;26.198;2022-11-20T03:13:47;14.68;;;3.83;;
9248;SDS011;4660;41.768;26.198;2022-11-20T03:16:14;13.18;;;3.30;;
9248;SDS011;4660;41.768;26.198;2022-11-20T03:18:41;15.30;;;3.00;;
9248;SDS011;4660;41.768;26.198;2022-11-20T03:21:08;13.52;;;3.75;;
9248;SDS011;4660;41.768;26.198;2022-11-20T03:23:35;12.38;;;3.22;;
9248;SDS011;4660;41.768;26.198;2022-11-20T03:26:12;14.80;;;4.13;;
9248;SDS011;4660;41.768;26.198;2022-11-20T03:28:39;11.05;;;3.63;;
9248;SDS011;4660;41.768;26.198;2022-11-20T03:31:12;14.68;;;4.13;;
9248;SDS011;4660;41.768;26.198;2022-11-20T03:33:39;11.98;;;3.08;;
9248;SDS011;4660;41.768;26.198;2022-11-20T03:36:09;11.55;;;3.17;;
9248;SDS011;4660;41.768;26.198;2022-11-20T03:38:36;15.88;;;4.32;;
9248;SDS011;4660;41.768;26.198;2022-11-20T03:41:03;12.93;;;3.50;;
9248;SDS011;4660;41.768;26.198;2022-11-20T03:43:33;12.55;;;3.70;;
9248;SDS011;4660;41.768;26.198;2022-11-20T03:46:00;13.70;;;3.28;;
9248;SDS011;4660;41.768;26.198;2022-11-20T03:48:25;11.05;;;3.15;;
9248;SDS011;4660;41.768;26.198;2022-11-20T03:50:52;6.72;;;2.90;;
9248;SDS011;4660;41.768;26.198;2022-11-20T03:53:18;9.50;;;3.28;;
9248;SDS011;4660;41.768;26.198;2022-11-20T03:55:45;9.38;;;2.70;;
9248;SDS011;4660;41.768;26.198;2022-11-20T03:58:15;12.20;;;3.38;;
9248;SDS011;4660;41.768;26.198;2022-11-20T04:00:40;9.30;;;3.13;;
9248;SDS011;4660;41.768;26.198;2022-11-20T04:03:06;13.73;;;3.67;;
9248;SDS011;4660;41.768;26.198;2022-11-20T04:05:32;11.20;;;3.08;;
9248;SDS011;4660;41.768;26.198;2022-11-20T04:07:59;13.10;;;3.33;;
9248;SDS011;4660;41.768;26.198;2022-11-20T04:10:25;13.20;;;3.08;;
9248;SDS011;4660;41.768;26.198;2022-11-20T04:12:51;12.98;;;3.85;;
9248;SDS011;4660;41.768;26.198;2022-11-20T04:15:16;11.13;;;3.08;;
9248;SDS011;4660;41.768;26.198;2022-11-20T04:17:42;13.18;;;2.90;;
9248;SDS011;4660;41.768;26.198;2022-11-20T04:20:07;15.57;;;3.60;;
9248;SDS011;4660;41.768;26.198;2022-11-20T04:22:33;12.60;;;3.10;;
9248;SDS011;4660;41.768;26.198;2022-11-20T04:24:58;21.02;;;3.38;;
9248;SDS011;4660;41.768;26.198;2022-11-20T04:27:24;17.23;;;3.08;;
9248;SDS011;4660;41.768;26.198;2022-11-20T04:29:50;18.17;;;4.15;;
9248;SDS011;4660;41.768;26.198;2022-11-20T04:32:16;14.20;;;3.45;;
9248;SDS011;4660;41.768;26.198;2022-11-20T04:34:41;9.63;;;3.10;;
9248;SDS011;4660;41.768;26.198;2022-11-20T04:37:07;13.60;;;3.97;;
9248;SDS011;4660;41.768;26.198;2022-11-20T04:39:32;15.15;;;3.90;;
9248;SDS011;4660;41.768;26.198;2022-11-20T04:41:58;14.57;;;4.18;;
9248;SDS011;4660;41.768;26.198;2022-11-20T04:44:41;16.25;;;4.63;;
9248;SDS011;4660;41.768;26.198;2022-11-20T04:47:07;11.95;;;3.75;;
9248;SDS011;4660;41.768;26.198;2022-11-20T04:49:32;13.85;;;4.07;;
9248;SDS011;4660;41.768;26.198;2022-11-20T04:51:58;17.88;;;3.90;;
9248;SDS011;4660;41.768;26.198;2022-11-20T04:54:24;12.68;;;3.72;;
9248;SDS011;4660;41.768;26.198;2022-11-20T04:56:50;19.80;;;3.97;;
9248;SDS011;4660;41.768;26.198;2022-11-20T04:59:15;12.80;;;3.30;;
9248;SDS011;4660;41.768;26.198;2022-11-20T05:01:41;16.67;;;4.15;;
9248;SDS011;4660;41.768;26.198;2022-11-20T05:04:07;15.02;;;3.42;;
9248;SDS011;4660;41.768;26.198;2022-11-20T05:06:33;13.32;;;3.38;;
9248;SDS011;4660;41.768;26.198;2022-11-20T05:08:59;11.55;;;3.40;;
9248;SDS011;4660;41.768;26.198;2022-11-20T05:11:25;13.55;;;4.03;;
9248;SDS011;4660;41.768;26.198;2022-11-20T05:13:51;12.32;;;4.07;;
9248;SDS011;4660;41.768;26.198;2022-11-20T05:16:21;17.23;;;4.35;;
9248;SDS011;4660;41.768;26.198;2022-11-20T05:18:48;14.40;;;4.45;;
9248;SDS011;4660;41.768;26.198;2022-11-20T05:21:14;12.68;;;3.72;;
9248;SDS011;4660;41.768;26.198;2022-11-20T05:23:40;16.20;;;3.30;;
9248;SDS011;4660;41.768;26.198;2022-11-20T05:26:07;12.35;;;3.53;;
9248;SDS011;4660;41.768;26.198;2022-11-20T05:28:38;11.60;;;3.65;;
9248;SDS011;4660;41.768;26.198;2022-11-20T05:31:05;12.10;;;3.38;;
9248;SDS011;4660;41.768;26.198;2022-11-20T05:33:34;21.13;;;4.55;;
9248;SDS011;4660;41.768;26.198;2022-11-20T05:36:02;15.70;;;3.80;;
9248;SDS011;4660;41.768;26.198;2022-11-20T05:38:29;16.50;;;3.13;;
9248;SDS011;4660;41.768;26.198;2022-11-20T05:40:54;18.35;;;3.70;;
9248;SDS011;4660;41.768;26.198;2022-11-20T05:43:20;9.77;;;3.53;;
9248;SDS011;4660;41.768;26.198;2022-11-20T05:45:54;15.20;;;3.70;;
9248;SDS011;4660;41.768;26.198;2022-11-20T05:48:20;17.85;;;4.97;;
9248;SDS011;4660;41.768;26.198;2022-11-20T05:50:46;15.00;;;3.55;;
9248;SDS011;4660;41.768;26.198;2022-11-20T05:53:13;16.05;;;3.67;;
9248;SDS011;4660;41.768;26.198;2022-11-20T05:55:38;17.63;;;4.22;;
9248;SDS011;4660;41.768;26.198;2022-11-20T05:58:04;14.63;;;3.90;;
9248;SDS011;4660;41.768;26.198;2022-11-20T06:00:30;16.63;;;3.97;;
9248;SDS011;4660;41.768;26.198;2022-11-20T06:02:55;15.50;;;4.95;;
9248;SDS011;4660;41.768;26.198;2022-11-20T06:05:20;16.55;;;3.78;;
9248;SDS011;4660;41.768;26.198;2022-11-20T06:07:46;24.40;;;5.05;;
9248;SDS011;4660;41.768;26.198;2022-11-20T06:10:11;14.77;;;4.00;;
9248;SDS011;4660;41.768;26.198;2022-11-20T06:12:37;14.10;;;3.75;;
9248;SDS011;4660;41.768;26.198;2022-11-20T06:15:03;18.42;;;4.38;;
9248;SDS011;4660;41.768;26.198;2022-11-20T06:17:30;14.65;;;4.47;;
9248;SDS011;4660;41.768;26.198;2022-11-20T06:19:55;15.07;;;4.70;;
9248;SDS011;4660;41.768;26.198;2022-11-20T06:22:21;17.63;;;4.78;;
9248;SDS011;4660;41.768;26.198;2022-11-20T06:24:47;18.02;;;4.40;;
9248;SDS011;4660;41.768;26.198;2022-11-20T06:27:13;17.30;;;4.40;;
9248;SDS011;4660;41.768;26.198;2022-11-20T06:29:39;11.10;;;3.63;;
9248;SDS011;4660;41.768;26.198;2022-11-20T06:32:04;14.30;;;3.72;;
9248;SDS011;4660;41.768;26.198;2022-11-20T06:34:29;16.92;;;4.50;;
9248;SDS011;4660;41.768;26.198;2022-11-20T06:36:55;16.55;;;4.85;;
9248;SDS011;4660;41.768;26.198;2022-11-20T06:39:21;19.48;;;4.38;;
9248;SDS011;4660;41.768;26.198;2022-11-20T06:41:46;16.02;;;3.75;;
9248;SDS011;4660;41.768;26.198;2022-11-20T06:44:12;12.43;;;4.30;;
9248;SDS011;4660;41.768;26.198;2022-11-20T06:46:37;15.63;;;3.70;;
9248;SDS011;4660;41.768;26.198;2022-11-20T06:49:03;15.43;;;3.85;;
9248;SDS011;4660;41.768;26.198;2022-11-20T06:51:28;17.20;;;4.63;;
9248;SDS011;4660;41.768;26.198;2022-11-20T06:53:55;12.90;;;3.08;;
9248;SDS011;4660;41.768;26.198;2022-11-20T06:56:20;19.27;;;4.75;;
9248;SDS011;4660;41.768;26.198;2022-11-20T06:58:46;17.23;;;4.70;;
9248;SDS011;4660;41.768;26.198;2022-11-20T07:01:12;14.23;;;3.40;;
9248;SDS011;4660;41.768;26.198;2022-11-20T07:03:39;20.05;;;3.58;;
9248;SDS011;4660;41.768;26.198;2022-11-20T07:06:05;12.57;;;4.22;;
9248;SDS011;4660;41.768;26.198;2022-11-20T07:08:31;14.48;;;3.97;;
9248;SDS011;4660;41.768;26.198;2022-11-20T07:11:01;16.08;;;3.83;;
9248;SDS011;4660;41.768;26.198;2022-11-20T07:13:28;17.33;;;4.53;;
9248;SDS011;4660;41.768;26.198;2022-11-20T07:15:54;14.02;;;4.30;;
9248;SDS011;4660;41.768;26.198;2022-11-20T07:18:20;20.63;;;4.47;;
9248;SDS011;4660;41.768;26.198;2022-11-20T07:20:46;12.90;;;3.47;;
9248;SDS011;4660;41.768;26.198;2022-11-20T07:23:11;18.08;;;4.03;;
9248;SDS011;4660;41.768;26.198;2022-11-20T07:25:37;16.40;;;3.55;;
9248;SDS011;4660;41.768;26.198;2022-11-20T07:28:02;11.52;;;3.47;;
9248;SDS011;4660;41.768;26.198;2022-11-20T07:30:29;16.42;;;4.43;;
9248;SDS011;4660;41.768;26.198;2022-11-20T07:32:56;22.48;;;4.68;;
9248;SDS011;4660;41.768;26.198;2022-11-20T07:35:22;15.68;;;4.10;;
9248;SDS011;4660;41.768;26.198;2022-11-20T07:37:48;17.05;;;3.75;;
9248;SDS011;4660;41.768;26.198;2022-11-20T07:40:14;21.05;;;3.70;;
9248;SDS011;4660;41.768;26.198;2022-11-20T07:42:47;17.02;;;3.40;;
9248;SDS011;4660;41.768;26.198;2022-11-20T07:45:19;20.20;;;4.15;;
9248;SDS011;4660;41.768;26.198;2022-11-20T07:47:46;16.75;;;4.63;;
9248;SDS011;4660;41.768;26.198;2022-11-20T07:50:12;18.25;;;5.47;;
9248;SDS011;4660;41.768;26.198;2022-11-20T07:52:39;16.42;;;4.30;;
9248;SDS011;4660;41.768;26.198;2022-11-20T07:55:05;16.80;;;5.10;;
9248;SDS011;4660;41.768;26.198;2022-11-20T07:57:32;14.55;;;3.92;;
9248;SDS011;4660;41.768;26.198;2022-11-20T07:59:57;18.67;;;5.22;;
9248;SDS011;4660;41.768;26.198;2022-11-20T08:02:23;13.77;;;3.95;;
9248;SDS011;4660;41.768;26.198;2022-11-20T08:04:48;14.98;;;4.80;;
9248;SDS011;4660;41.768;26.198;2022-11-20T08:07:14;16.70;;;4.85;;
9248;SDS011;4660;41.768;26.198;2022-11-20T08:09:39;14.32;;;3.63;;
9248;SDS011;4660;41.768;26.198;2022-11-20T08:12:05;17.13;;;4.07;;
9248;SDS011;4660;41.768;26.198;2022-11-20T08:14:50;17.33;;;4.40;;
9248;SDS011;4660;41.768;26.198;2022-11-20T08:17:15;20.23;;;5.18;;
9248;SDS011;4660;41.768;26.198;2022-11-20T08:19:41;17.27;;;5.28;;
9248;SDS011;4660;41.768;26.198;2022-11-20T08:22:06;16.83;;;5.03;;
9248;SDS011;4660;41.768;26.198;2022-11-20T08:24:32;20.08;;;4.70;;
9248;SDS011;4660;41.768;26.198;2022-11-20T08:26:58;19.65;;;4.60;;
9248;SDS011;4660;41.768;26.198;2022-11-20T08:29:26;22.30;;;5.70;;
9248;SDS011;4660;41.768;26.198;2022-11-20T08:31:52;16.92;;;4.53;;
9248;SDS011;4660;41.768;26.198;2022-11-20T08:34:17;18.35;;;4.10;;
9248;SDS011;4660;41.768;26.198;2022-11-20T08:36:43;22.05;;;5.15;;
9248;SDS011;4660;41.768;26.198;2022-11-20T08:39:11;16.00;;;4.95;;
9248;SDS011;4660;41.768;26.198;2022-11-20T08:41:37;18.20;;;4.65;;
9248;SDS011;4660;41.768;26.198;2022-11-20T08:44:03;23.98;;;4.93;;
9248;SDS011;4660;41.768;26.198;2022-11-20T08:46:34;21.63;;;5.25;;
9248;SDS011;4660;41.768;26.198;2022-11-20T08:49:05;15.55;;;4.80;;
9248;SDS011;4660;41.768;26.198;2022-11-20T08:51:31;20.70;;;4.93;;
9248;SDS011;4660;41.768;26.198;2022-11-20T08:53:57;15.75;;;5.03;;
9248;SDS011;4660;41.768;26.198;2022-11-20T08:56:23;29.23;;;5.90;;
9248;SDS011;4660;41.768;26.198;2022-11-20T08:58:49;17.70;;;5.32;;
9248;SDS011;4660;41.768;26.198;2022-11-20T09:01:17;22.30;;;5.88;;
9248;SDS011;4660;41.768;26.198;2022-11-20T09:03:43;17.88;;;4.80;;
9248;SDS011;4660;41.768;26.198;2022-11-20T09:06:08;20.23;;;5.40;;
9248;SDS011;4660;41.768;26.198;2022-11-20T09:08:34;23.67;;;5.10;;
9248;SDS011;4660;41.768;26.198;2022-11-20T09:11:01;19.77;;;6.45;;
9248;SDS011;4660;41.768;26.198;2022-11-20T09:13:27;24.17;;;5.25;;
9248;SDS011;4660;41.768;26.198;2022-11-20T09:15:55;21.13;;;4.97;;
9248;SDS011;4660;41.768;26.198;2022-11-20T09:18:21;23.88;;;4.75;;
9248;SDS011;4660;41.768;26.198;2022-11-20T09:20:47;20.23;;;5.53;;
9248;SDS011;4660;41.768;26.198;2022-11-20T09:23:14;21.40;;;5.22;;
9248;SDS011;4660;41.768;26.198;2022-11-20T09:25:39;14.48;;;4.35;;
9248;SDS011;4660;41.768;26.198;2022-11-20T09:28:05;20.20;;;5.32;;
9248;SDS011;4660;41.768;26.198;2022-11-20T09:30:30;23.42;;;6.18;;
9248;SDS011;4660;41.768;26.198;2022-11-20T09:32:56;32.95;;;6.32;;
9248;SDS011;4660;41.768;26.198;2022-11-20T09:35:22;23.65;;;6.70;;
9248;SDS011;4660;41.768;26.198;2022-11-20T09:37:48;26.52;;;5.25;;
9248;SDS011;4660;41.768;26.198;2022-11-20T09:40:21;19.63;;;6.60;;
9248;SDS011;4660;41.768;26.198;2022-11-20T09:51:39;23.80;;;7.45;;
9248;SDS011;4660;41.768;26.198;2022-11-20T09:54:19;24.35;;;7.68;;
9248;SDS011;4660;41.768;26.198;2022-11-20T09:56:48;35.72;;;7.90;;
9248;SDS011;4660;41.768;26.198;2022-11-20T09:59:27;23.10;;;6.90;;
9248;SDS011;4660;41.768;26.198;2022-11-20T10:01:59;22.92;;;5.70;;
9248;SDS011;4660;41.768;26.198;2022-11-20T10:04:27;30.35;;;7.35;;
9248;SDS011;4660;41.768;26.198;2022-11-20T10:09:40;20.75;;;4.72;;
9248;SDS011;4660;41.768;26.198;2022-11-20T10:20:00;24.52;;;5.13;;
9248;SDS011;4660;41.768;26.198;2022-11-20T10:22:47;26.65;;;5.10;;
9248;SDS011;4660;41.768;26.198;2022-11-20T10:30:41;22.33;;;5.43;;
9248;SDS011;4660;41.768;26.198;2022-11-20T10:33:31;26.63;;;5.03;;
9248;SDS011;4660;41.768;26.198;2022-11-20T10:39:24;29.02;;;5.80;;
9248;SDS011;4660;41.768;26.198;2022-11-20T10:41:42;20.13;;;4.55;;
9248;SDS011;4660;41.768;26.198;2022-11-20T10:47:04;17.30;;;4.55;;
9248;SDS011;4660;41.768;26.198;2022-11-20T10:49:36;26.30;;;4.70;;
9248;SDS011;4660;41.768;26.198;2022-11-20T11:00:25;27.17;;;4.97;;
9248;SDS011;4660;41.768;26.198;2022-11-20T11:02:52;28.52;;;4.60;;
9248;SDS011;4660;41.768;26.198;2022-11-20T11:07:46;31.80;;;5.07;;
9248;SDS011;4660;41.768;26.198;2022-11-20T11:10:20;21.65;;;4.60;;
9248;SDS011;4660;41.768;26.198;2022-11-20T11:12:51;24.10;;;4.88;;
9248;SDS011;4660;41.768;26.198;2022-11-20T11:18:09;30.02;;;5.20;;
9248;SDS011;4660;41.768;26.198;2022-11-20T11:20:36;26.45;;;4.65;;
9248;SDS011;4660;41.768;26.198;2022-11-20T11:23:02;24.67;;;4.82;;
9248;SDS011;4660;41.768;26.198;2022-11-20T11:25:30;21.45;;;4.32;;
9248;SDS011;4660;41.768;26.198;2022-11-20T11:28:03;30.30;;;6.25;;
9248;SDS011;4660;41.768;26.198;2022-11-20T11:30:44;27.38;;;4.50;;
9248;SDS011;4660;41.768;26.198;2022-11-20T11:33:19;24.88;;;5.15;;
9248;SDS011;4660;41.768;26.198;2022-11-20T11:38:32;29.60;;;6.03;;
9248;SDS011;4660;41.768;26.198;2022-11-20T11:41:01;38.20;;;6.55;;
9248;SDS011;4660;41.768;26.198;2022-11-20T11:43:29;23.08;;;5.82;;
9248;SDS011;4660;41.768;26.198;2022-11-20T11:46:33;31.48;;;5.90;;
9248;SDS011;4660;41.768;26.198;2022-11-20T11:54:15;34.70;;;5.95;;
9248;SDS011;4660;41.768;26.198;2022-11-20T11:56:49;25.25;;;5.47;;
9248;SDS011;4660;41.768;26.198;2022-11-20T11:59:20;31.13;;;5.03;;
9248;SDS011;4660;41.768;26.198;2022-11-20T12:01:53;34.72;;;5.53;;
9248;SDS011;4660;41.768;26.198;2022-11-20T12:04:38;31.45;;;5.72;;
9248;SDS011;4660;41.768;26.198;2022-11-20T12:13:34;24.58;;;5.10;;
9248;SDS011;4660;41.768;26.198;2022-11-20T12:16:07;35.25;;;5.85;;
9248;SDS011;4660;41.768;26.198;2022-11-20T12:18:38;20.25;;;5.78;;
9248;SDS011;4660;41.768;26.198;2022-11-20T12:21:19;38.38;;;6.78;;
9248;SDS011;4660;41.768;26.198;2022-11-20T12:32:16;37.38;;;6.00;;
9248;SDS011;4660;41.768;26.198;2022-11-20T12:37:10;36.85;;;8.52;;
9248;SDS011;4660;41.768;26.198;2022-11-20T12:39:43;34.22;;;7.57;;
9248;SDS011;4660;41.768;26.198;2022-11-20T12:54:05;33.50;;;9.75;;
9248;SDS011;4660;41.768;26.198;2022-11-20T13:08:01;32.22;;;6.95;;
9248;SDS011;4660;41.768;26.198;2022-11-20T13:15:47;34.97;;;6.65;;
9248;SDS011;4660;41.768;26.198;2022-11-20T13:18:37;26.00;;;6.80;;
9248;SDS011;4660;41.768;26.198;2022-11-20T13:21:13;39.20;;;6.88;;
9248;SDS011;4660;41.768;26.198;2022-11-20T13:26:43;31.48;;;6.22;;
9248;SDS011;4660;41.768;26.198;2022-11-20T13:29:11;35.97;;;6.95;;
9248;SDS011;4660;41.768;26.198;2022-11-20T13:31:43;37.33;;;7.72;;
9248;SDS011;4660;41.768;26.198;2022-11-20T13:34:26;33.60;;;7.47;;
9248;SDS011;4660;41.768;26.198;2022-11-20T13:36:53;35.30;;;7.82;;
9248;SDS011;4660;41.768;26.198;2022-11-20T13:39:28;33.15;;;8.25;;
9248;SDS011;4660;41.768;26.198;2022-11-20T13:41:59;36.10;;;7.65;;
9248;SDS011;4660;41.768;26.198;2022-11-20T13:44:53;45.58;;;8.40;;
9248;SDS011;4660;41.768;26.198;2022-11-20T13:49:46;32.00;;;6.72;;
9248;SDS011;4660;41.768;26.198;2022-11-20T14:00:43;30.90;;;8.75;;
9248;SDS011;4660;41.768;26.198;2022-11-20T14:03:16;44.33;;;11.60;;
9248;SDS011;4660;41.768;26.198;2022-11-20T14:05:52;42.72;;;11.55;;
9248;SDS011;4660;41.768;26.198;2022-11-20T14:08:38;38.55;;;12.77;;
9248;SDS011;4660;41.768;26.198;2022-11-20T14:14:03;45.42;;;12.52;;
9248;SDS011;4660;41.768;26.198;2022-11-20T14:16:40;44.20;;;13.65;;
9248;SDS011;4660;41.768;26.198;2022-11-20T14:21:47;34.45;;;8.35;;
9248;SDS011;4660;41.768;26.198;2022-11-20T14:24:17;46.55;;;10.98;;
9248;SDS011;4660;41.768;26.198;2022-11-20T14:26:45;49.88;;;13.65;;
9248;SDS011;4660;41.768;26.198;2022-11-20T14:29:17;69.65;;;20.27;;
9248;SDS011;4660;41.768;26.198;2022-11-20T14:31:44;54.72;;;20.08;;
9248;SDS011;4660;41.768;26.198;2022-11-20T14:34:15;60.85;;;15.15;;
9248;SDS011;4660;41.768;26.198;2022-11-20T14:36:46;32.38;;;9.88;;
9248;SDS011;4660;41.768;26.198;2022-11-20T14:39:19;35.25;;;8.75;;
9248;SDS011;4660;41.768;26.198;2022-11-20T14:41:53;39.05;;;8.23;;
9248;SDS011;4660;41.768;26.198;2022-11-20T14:44:23;37.90;;;8.25;;
9248;SDS011;4660;41.768;26.198;2022-11-20T14:46:52;46.30;;;9.65;;
9248;SDS011;4660;41.768;26.198;2022-11-20T14:49:20;36.22;;;9.77;;
9248;SDS011;4660;41.768;26.198;2022-11-20T14:51:46;43.53;;;10.45;;
9248;SDS011;4660;41.768;26.198;2022-11-20T14:54:26;38.60;;;9.43;;
9248;SDS011;4660;41.768;26.198;2022-11-20T14:57:03;40.67;;;9.18;;
9248;SDS011;4660;41.768;26.198;2022-11-20T14:59:30;37.65;;;8.45;;
9248;SDS011;4660;41.768;26.198;2022-11-20T15:02:04;33.47;;;8.35;;
9248;SDS011;4660;41.768;26.198;2022-11-20T15:04:43;44.50;;;11.00;;
9248;SDS011;4660;41.768;26.198;2022-11-20T15:07:23;50.20;;;18.02;;
9248;SDS011;4660;41.768;26.198;2022-11-20T15:10:07;78.90;;;27.83;;
9248;SDS011;4660;41.768;26.198;2022-11-20T15:12:38;81.43;;;34.45;;
9248;SDS011;4660;41.768;26.198;2022-11-20T15:15:11;57.75;;;15.48;;
9248;SDS011;4660;41.768;26.198;2022-11-20T15:17:39;80.53;;;33.22;;
9248;SDS011;4660;41.768;26.198;2022-11-20T15:20:09;85.38;;;40.97;;
9248;SDS011;4660;41.768;26.198;2022-11-20T15:22:38;76.50;;;35.53;;
9248;SDS011;4660;41.768;26.198;2022-11-20T15:25:11;69.13;;;30.38;;
9248;SDS011;4660;41.768;26.198;2022-11-20T15:27:38;67.70;;;31.13;;
9248;SDS011;4660;41.768;26.198;2022-11-20T15:30:19;66.57;;;23.95;;
9248;SDS011;4660;41.768;26.198;2022-11-20T15:32:46;62.03;;;27.35;;
9248;SDS011;4660;41.768;26.198;2022-11-20T15:35:12;58.38;;;22.88;;
9248;SDS011;4660;41.768;26.198;2022-11-20T15:37:41;49.20;;;15.95;;
9248;SDS011;4660;41.768;26.198;2022-11-20T15:40:07;165.98;;;73.60;;
9248;SDS011;4660;41.768;26.198;2022-11-20T15:42:34;69.68;;;25.95;;
9248;SDS011;4660;41.768;26.198;2022-11-20T15:45:01;48.88;;;15.68;;
9248;SDS011;4660;41.768;26.198;2022-11-20T15:47:29;39.67;;;12.23;;
9248;SDS011;4660;41.768;26.198;2022-11-20T15:49:56;37.10;;;8.63;;
9248;SDS011;4660;41.768;26.198;2022-11-20T15:52:22;42.70;;;8.80;;
9248;SDS011;4660;41.768;26.198;2022-11-20T15:54:47;42.42;;;9.13;;
9248;SDS011;4660;41.768;26.198;2022-11-20T15:57:13;38.85;;;9.30;;
9248;SDS011;4660;41.768;26.198;2022-11-20T15:59:39;31.77;;;9.40;;
9248;SDS011;4660;41.768;26.198;2022-11-20T16:02:12;33.67;;;9.05;;
9248;SDS011;4660;41.768;26.198;2022-11-20T16:04:39;32.80;;;8.48;;
9248;SDS011;4660;41.768;26.198;2022-11-20T16:07:04;42.15;;;9.60;;
9248;SDS011;4660;41.768;26.198;2022-11-20T16:09:30;27.70;;;8.50;;
9248;SDS011;4660;41.768;26.198;2022-11-20T16:11:55;36.28;;;10.40;;
9248;SDS011;4660;41.768;26.198;2022-11-20T16:14:24;38.92;;;9.57;;
9248;SDS011;4660;41.768;26.198;2022-11-20T16:17:08;37.63;;;8.65;;
9248;SDS011;4660;41.768;26.198;2022-11-20T16:19:33;37.83;;;9.77;;
9248;SDS011;4660;41.768;26.198;2022-11-20T16:21:59;32.60;;;9.40;;
9248;SDS011;4660;41.768;26.198;2022-11-20T16:24:27;36.78;;;8.18;;
9248;SDS011;4660;41.768;26.198;2022-11-20T16:26:52;29.65;;;9.52;;
9248;SDS011;4660;41.768;26.198;2022-11-20T16:29:18;33.15;;;9.18;;
9248;SDS011;4660;41.768;26.198;2022-11-20T16:31:44;33.58;;;8.93;;
9248;SDS011;4660;41.768;26.198;2022-11-20T16:34:09;36.75;;;9.80;;
9248;SDS011;4660;41.768;26.198;2022-11-20T16:36:35;44.88;;;10.52;;
9248;SDS011;4660;41.768;26.198;2022-11-20T16:39:01;27.70;;;9.60;;
9248;SDS011;4660;41.768;26.198;2022-11-20T16:41:29;32.88;;;9.85;;
9248;SDS011;4660;41.768;26.198;2022-11-20T16:43:57;34.63;;;11.82;;
9248;SDS011;4660;41.768;26.198;2022-11-20T16:46:25;43.65;;;19.63;;
9248;SDS011;4660;41.768;26.198;2022-11-20T16:48:53;60.78;;;22.65;;
9248;SDS011;4660;41.768;26.198;2022-11-20T16:51:29;57.03;;;18.52;;
9248;SDS011;4660;41.768;26.198;2022-11-20T16:53:56;37.25;;;14.07;;
9248;SDS011;4660;41.768;26.198;2022-11-20T16:56:23;34.05;;;10.05;;
9248;SDS011;4660;41.768;26.198;2022-11-20T16:58:50;37.95;;;10.10;;
9248;SDS011;4660;41.768;26.198;2022-11-20T17:01:20;36.08;;;8.02;;
9248;SDS011;4660;41.768;26.198;2022-11-20T17:03:52;29.80;;;7.90;;